createdAt,value
2018-01-03T00:00:17.076Z,3.8
2018-01-03T00:01:19.776Z,3.8
2018-01-03T00:02:22.183Z,3.7
2018-01-03T00:03:24.579Z,3.8
2018-01-03T00:04:26.998Z,3.8
2018-01-03T00:05:29.408Z,3.8
2018-01-03T00:06:31.825Z,3.8
2018-01-03T00:07:34.530Z,3.8
2018-01-03T00:08:36.942Z,3.8
2018-01-03T00:09:39.352Z,3.8
2018-01-03T00:10:41.766Z,3.8
2018-01-03T00:11:44.171Z,3.8
2018-01-03T00:12:46.586Z,3.8
2018-01-03T00:13:48.986Z,3.8
2018-01-03T00:14:51.400Z,3.8
2018-01-03T00:15:53.804Z,3.8
2018-01-03T00:16:56.501Z,3.8
2018-01-03T00:17:59.193Z,3.8
2018-01-03T00:19:01.607Z,3.8
2018-01-03T00:20:04.019Z,3.8
2018-01-03T00:21:06.714Z,3.8
2018-01-03T00:22:09.129Z,3.8
2018-01-03T00:23:11.836Z,3.8
2018-01-03T00:24:14.243Z,3.9
2018-01-03T00:25:16.652Z,3.9
2018-01-03T00:26:19.064Z,3.9
2018-01-03T00:27:21.762Z,3.9
2018-01-03T00:28:24.161Z,3.9
2018-01-03T00:29:26.593Z,3.9
2018-01-03T00:30:28.993Z,3.9
2018-01-03T00:31:31.406Z,3.9
2018-01-03T00:32:33.816Z,3.9
2018-01-03T00:33:36.507Z,3.9
2018-01-03T00:34:38.925Z,3.9
2018-01-03T00:35:41.344Z,3.9
2018-01-03T00:36:43.741Z,3.8
2018-01-03T00:37:46.154Z,3.8
2018-01-03T00:38:48.568Z,3.8
2018-01-03T00:39:50.980Z,3.8
2018-01-03T00:40:53.383Z,3.8
2018-01-03T00:41:55.791Z,3.8
2018-01-03T00:42:58.201Z,3.8
2018-01-03T00:44:00.618Z,3.8
2018-01-03T00:45:03.027Z,3.8
2018-01-03T00:46:05.429Z,3.7
2018-01-03T00:47:07.845Z,3.7
2018-01-03T00:48:10.548Z,3.8
2018-01-03T00:49:12.960Z,3.8
2018-01-03T00:50:15.371Z,3.8
2018-01-03T00:51:17.782Z,3.8
2018-01-03T00:52:20.190Z,3.8
2018-01-03T00:53:22.598Z,3.7
2018-01-03T00:54:25.011Z,3.8
2018-01-03T00:55:27.406Z,3.7
2018-01-03T00:56:29.827Z,3.7
2018-01-03T00:57:32.233Z,3.7
2018-01-03T00:58:34.641Z,3.7
2018-01-03T00:59:37.057Z,3.7
2018-01-03T01:00:39.743Z,3.7
2018-01-03T01:01:42.161Z,3.7
2018-01-03T01:02:44.574Z,3.7
2018-01-03T01:03:46.981Z,3.7
2018-01-03T01:04:49.389Z,3.7
2018-01-03T01:05:51.803Z,3.7
2018-01-03T01:06:54.210Z,3.7
2018-01-03T01:07:56.610Z,3.7
2018-01-03T01:08:59.021Z,3.6
2018-01-03T01:10:01.419Z,3.7
2018-01-03T01:11:04.125Z,3.7
2018-01-03T01:12:06.522Z,3.7
2018-01-03T01:13:09.218Z,3.6
2018-01-03T01:14:11.923Z,3.6
2018-01-03T01:15:14.331Z,3.6
2018-01-03T01:16:17.026Z,3.6
2018-01-03T01:17:19.432Z,3.6
2018-01-03T01:18:21.845Z,3.5
2018-01-03T01:19:24.535Z,3.5
2018-01-03T01:20:26.940Z,3.5
2018-01-03T01:21:29.337Z,3.5
2018-01-03T01:22:31.743Z,3.5
2018-01-03T01:23:34.152Z,3.5
2018-01-03T01:24:36.563Z,3.5
2018-01-03T01:25:39.253Z,3.5
2018-01-03T01:26:41.673Z,3.4
2018-01-03T01:27:44.081Z,3.4
2018-01-03T01:28:46.481Z,3.4
2018-01-03T01:29:48.897Z,3.4
2018-01-03T01:30:51.314Z,3.4
2018-01-03T01:31:53.719Z,3.4
2018-01-03T01:32:56.136Z,3.4
2018-01-03T01:33:58.812Z,3.3
2018-01-03T01:35:01.220Z,3.3
2018-01-03T01:36:03.642Z,3.3
2018-01-03T01:37:06.048Z,3.3
2018-01-03T01:38:08.457Z,3.3
2018-01-03T01:39:10.867Z,3.3
2018-01-03T01:40:13.565Z,3.3
2018-01-03T01:41:15.967Z,3.3
2018-01-03T01:42:18.383Z,3.2
2018-01-03T01:43:20.795Z,3.2
2018-01-03T01:44:23.200Z,3.2
2018-01-03T01:45:25.908Z,3.2
2018-01-03T01:46:28.306Z,3.2
2018-01-03T01:47:30.722Z,3.2
2018-01-03T01:48:33.414Z,3.2
2018-01-03T01:49:35.816Z,3.2
2018-01-03T01:50:38.511Z,3.2
2018-01-03T01:51:40.921Z,3.2
2018-01-03T01:52:43.331Z,3.2
2018-01-03T01:53:45.750Z,3.2
2018-01-03T01:54:48.160Z,3.2
2018-01-03T01:55:50.576Z,3.2
2018-01-03T01:56:53.576Z,3.2
2018-01-03T01:57:55.990Z,3.2
2018-01-03T01:58:58.692Z,3.2
2018-01-03T02:00:01.092Z,3.2
2018-01-03T02:01:03.502Z,3.2
2018-01-03T02:02:05.914Z,3.2
2018-01-03T02:03:08.317Z,3.2
2018-01-03T02:04:10.723Z,3.2
2018-01-03T02:05:13.133Z,3.2
2018-01-03T02:06:15.531Z,3.2
2018-01-03T02:07:17.963Z,3.2
2018-01-03T02:08:20.359Z,3.2
2018-01-03T02:09:22.752Z,3.2
2018-01-03T02:10:25.173Z,3.2
2018-01-03T02:11:27.584Z,3.2
2018-01-03T02:12:29.992Z,3.2
2018-01-03T02:13:32.406Z,3.2
2018-01-03T02:14:35.102Z,3.2
2018-01-03T02:15:37.793Z,3.2
2018-01-03T02:16:40.203Z,3.2
2018-01-03T02:17:42.604Z,3.2
2018-01-03T02:18:45.009Z,3.2
2018-01-03T02:19:47.424Z,3.2
2018-01-03T02:20:49.822Z,3.1
2018-01-03T02:21:52.234Z,3.1
2018-01-03T02:22:54.648Z,3.1
2018-01-03T02:23:57.066Z,3.1
2018-01-03T02:24:59.468Z,3.1
2018-01-03T02:26:01.887Z,3.1
2018-01-03T02:27:04.573Z,3.1
2018-01-03T02:28:06.987Z,3.1
2018-01-03T02:29:09.384Z,3.1
2018-01-03T02:30:12.367Z,3.1
2018-01-03T02:31:14.770Z,3.1
2018-01-03T02:32:17.182Z,3.1
2018-01-03T02:33:19.576Z,3.1
2018-01-03T02:34:21.996Z,3
2018-01-03T02:35:24.411Z,3
2018-01-03T02:36:26.820Z,3.1
2018-01-03T02:37:29.517Z,3
2018-01-03T02:38:31.922Z,3
2018-01-03T02:39:34.334Z,3.1
2018-01-03T02:40:36.740Z,3
2018-01-03T02:41:39.148Z,3.1
2018-01-03T02:42:41.551Z,3
2018-01-03T02:43:43.956Z,3.1
2018-01-03T02:44:46.380Z,3.1
2018-01-03T02:45:48.787Z,3.1
2018-01-03T02:46:51.206Z,3.1
2018-01-03T02:47:53.596Z,3.1
2018-01-03T02:48:56.011Z,3.1
2018-01-03T02:49:58.417Z,3.1
2018-01-03T02:51:00.835Z,3.1
2018-01-03T02:52:03.226Z,3.1
2018-01-03T02:53:05.635Z,3.1
2018-01-03T02:54:08.057Z,3.1
2018-01-03T02:55:10.465Z,3.2
2018-01-03T02:56:12.882Z,3.2
2018-01-03T02:57:15.293Z,3.2
2018-01-03T02:58:17.697Z,3.2
2018-01-03T02:59:20.106Z,3.2
2018-01-03T03:00:22.502Z,3.2
2018-01-03T03:01:24.910Z,3.2
2018-01-03T03:02:27.321Z,3.2
2018-01-03T03:03:29.725Z,3.2
2018-01-03T03:04:32.128Z,3.2
2018-01-03T03:05:34.542Z,3.2
2018-01-03T03:06:36.955Z,3.2
2018-01-03T03:07:39.370Z,3.2
2018-01-03T03:08:41.786Z,3.2
2018-01-03T03:09:44.194Z,3.2
2018-01-03T03:10:46.604Z,3.2
2018-01-03T03:11:49.019Z,3.2
2018-01-03T03:12:51.421Z,3.2
2018-01-03T03:13:53.839Z,3.2
2018-01-03T03:14:56.246Z,3.2
2018-01-03T03:15:58.927Z,3.2
2018-01-03T03:17:01.340Z,3.2
2018-01-03T03:18:03.743Z,3.3
2018-01-03T03:19:06.151Z,3.3
2018-01-03T03:20:08.559Z,3.3
2018-01-03T03:21:10.960Z,3.3
2018-01-03T03:22:13.367Z,3.3
2018-01-03T03:23:15.775Z,3.3
2018-01-03T03:24:18.195Z,3.3
2018-01-03T03:25:20.591Z,3.3
2018-01-03T03:26:22.996Z,3.3
2018-01-03T03:27:25.416Z,3.3
2018-01-03T03:28:27.815Z,3.3
2018-01-03T03:29:30.220Z,3.3
2018-01-03T03:30:32.626Z,3.4
2018-01-03T03:31:35.025Z,3.4
2018-01-03T03:32:37.726Z,3.4
2018-01-03T03:33:40.135Z,3.4
2018-01-03T03:34:42.525Z,3.5
2018-01-03T03:35:44.948Z,3.5
2018-01-03T03:36:47.641Z,3.5
2018-01-03T03:37:50.050Z,3.6
2018-01-03T03:38:52.460Z,3.6
2018-01-03T03:39:55.144Z,3.6
2018-01-03T03:40:57.550Z,3.6
2018-01-03T03:42:00.258Z,3.6
2018-01-03T03:43:02.664Z,3.6
2018-01-03T03:44:05.078Z,3.6
2018-01-03T03:45:07.484Z,3.6
2018-01-03T03:46:09.893Z,3.6
2018-01-03T03:47:12.304Z,3.6
2018-01-03T03:48:14.705Z,3.6
2018-01-03T03:49:17.102Z,3.6
2018-01-03T03:50:19.803Z,3.5
2018-01-03T03:51:22.517Z,3.6
2018-01-03T03:52:25.210Z,3.5
2018-01-03T03:53:27.613Z,3.5
2018-01-03T03:54:30.018Z,3.5
2018-01-03T03:55:32.423Z,3.5
2018-01-03T03:56:35.122Z,3.5
2018-01-03T03:57:37.520Z,3.5
2018-01-03T03:58:39.937Z,3.5
2018-01-03T03:59:42.343Z,3.5
2018-01-03T04:00:44.744Z,3.5
2018-01-03T04:01:47.157Z,3.5
2018-01-03T04:02:49.572Z,3.5
2018-01-03T04:03:51.981Z,3.6
2018-01-03T04:04:54.395Z,3.5
2018-01-03T04:05:56.793Z,3.5
2018-01-03T04:06:59.202Z,3.5
2018-01-03T04:08:01.625Z,3.5
2018-01-03T04:09:04.028Z,3.5
2018-01-03T04:10:06.435Z,3.5
2018-01-03T04:11:09.133Z,3.5
2018-01-03T04:12:11.819Z,3.6
2018-01-03T04:13:14.245Z,3.5
2018-01-03T04:14:16.928Z,3.5
2018-01-03T04:15:19.325Z,3.5
2018-01-03T04:16:21.733Z,3.5
2018-01-03T04:17:24.135Z,3.5
2018-01-03T04:18:26.552Z,3.5
2018-01-03T16:48:56.816Z,5.3
2018-01-03T16:49:59.309Z,5.6
2018-01-03T16:51:01.804Z,5.6
2018-01-03T16:52:04.307Z,5.6
2018-01-03T16:53:06.819Z,5.6
2018-01-03T16:54:09.315Z,5.5
2018-01-03T16:55:11.800Z,5.5
2018-01-03T16:56:14.596Z,5.6
2018-01-03T16:57:17.085Z,5.6
2018-01-03T16:58:19.868Z,5.5
2018-01-03T16:59:22.366Z,5.5
2018-01-03T17:00:24.870Z,5.5
2018-01-03T17:01:27.367Z,5.5
2018-01-03T17:02:29.876Z,5.5
2018-01-03T17:03:32.367Z,5.5
2018-01-03T17:04:34.881Z,5.5
2018-01-03T17:05:37.370Z,5.5
2018-01-03T17:06:39.858Z,5.5
2018-01-03T17:07:42.359Z,5.5
2018-01-03T17:08:44.854Z,5.5
2018-01-03T17:09:47.345Z,5.5
2018-01-03T17:10:50.137Z,5.5
2018-01-03T17:11:52.614Z,5.5
2018-01-03T17:12:55.112Z,5.6
2018-01-03T17:13:57.622Z,5.6
2018-01-03T17:15:00.118Z,5.6
2018-01-03T17:16:02.908Z,5.6
2018-01-03T17:17:05.398Z,5.6
2018-01-03T17:18:07.900Z,5.6
2018-01-03T17:19:10.372Z,5.6
2018-01-03T17:20:12.870Z,5.6
2018-01-03T17:21:15.376Z,5.6
2018-01-03T17:22:17.870Z,5.6
2018-01-03T17:23:20.363Z,5.6
2018-01-03T17:24:22.852Z,5.6
2018-01-03T17:25:25.345Z,5.6
2018-01-03T17:26:27.861Z,5.6
2018-01-03T17:27:30.381Z,5.7
2018-01-03T17:28:32.932Z,5.7
2018-01-03T17:29:35.747Z,5.7
2018-01-03T17:30:39.279Z,5.6
2018-01-03T17:31:42.548Z,5.6
2018-01-03T17:32:46.670Z,5.6
2018-01-03T17:33:51.525Z,5.6
2018-01-03T17:34:54.287Z,5.6
2018-01-03T17:35:57.625Z,5.6
2018-01-03T17:37:01.292Z,5.6
2018-01-03T17:38:05.351Z,5.6
2018-01-03T17:39:08.820Z,5.6
2018-01-03T17:40:11.755Z,5.6
2018-01-03T17:41:14.683Z,5.6
2018-01-03T17:42:17.514Z,5.6
2018-01-03T17:43:20.318Z,5.6
2018-01-03T17:44:22.817Z,5.6
2018-01-03T17:45:25.349Z,5.6
2018-01-03T17:46:28.135Z,5.6
2018-01-03T17:47:30.645Z,5.6
2018-01-03T17:48:33.148Z,5.6
2018-01-03T17:49:35.673Z,5.5
2018-01-03T17:50:38.182Z,5.5
2018-01-03T17:51:40.687Z,5.5
2018-01-03T17:52:43.232Z,5.4
2018-01-03T17:53:45.752Z,5.5
2018-01-03T17:54:48.261Z,5.5
2018-01-03T17:55:50.776Z,5.4
2018-01-03T17:56:53.286Z,5.4
2018-01-03T17:57:55.808Z,5.4
2018-01-03T17:58:58.318Z,5.4
2018-01-03T18:00:01.218Z,5.4
2018-01-03T18:01:03.729Z,5.4
2018-01-03T18:02:06.260Z,5.3
2018-01-03T18:03:08.762Z,5.3
2018-01-03T18:04:11.268Z,5.3
2018-01-03T18:05:13.776Z,5.3
2018-01-03T18:06:16.331Z,5.3
2018-01-03T18:07:18.782Z,5.3
2018-01-03T18:08:21.296Z,5.2
2018-01-03T18:09:24.118Z,5.2
2018-01-03T18:10:26.941Z,5.2
2018-01-03T18:11:29.443Z,5.2
2018-01-03T18:12:31.946Z,5.1
2018-01-03T18:13:34.454Z,5.2
2018-01-03T18:14:36.957Z,5.1
2018-01-03T18:15:39.745Z,5.1
2018-01-03T18:16:42.251Z,5.1
2018-01-03T18:17:44.760Z,5.1
2018-01-03T18:18:47.247Z,5.1
2018-01-03T18:19:49.752Z,5
2018-01-03T18:20:52.261Z,5
2018-01-03T18:21:54.768Z,5
2018-01-03T18:22:57.278Z,5
2018-01-03T18:23:59.794Z,5
2018-01-03T18:25:02.299Z,5
2018-01-03T18:26:04.810Z,5
2018-01-03T18:27:07.316Z,4.9
2018-01-03T18:28:09.815Z,4.9
2018-01-03T18:29:12.326Z,4.9
2018-01-03T18:30:14.855Z,4.9
2018-01-03T18:31:17.356Z,4.9
2018-01-03T18:32:19.874Z,4.9
2018-01-03T18:33:22.371Z,4.9
2018-01-03T18:34:24.883Z,4.9
2018-01-03T18:35:27.384Z,4.9
2018-01-03T18:36:30.197Z,4.9
2018-01-03T18:37:32.983Z,4.9
2018-01-03T18:38:35.492Z,5
2018-01-03T18:39:38.003Z,4.9
2018-01-03T18:40:40.499Z,4.9
2018-01-03T18:41:43.014Z,4.9
2018-01-03T18:42:45.514Z,4.9
2018-01-03T18:43:48.015Z,5
2018-01-03T18:44:50.547Z,5
2018-01-03T18:45:53.053Z,5
2018-01-03T18:46:55.544Z,5
2018-01-03T18:47:58.059Z,5
2018-01-03T18:49:00.860Z,5
2018-01-03T18:50:03.370Z,5
2018-01-03T18:51:05.872Z,5
2018-01-03T18:52:08.405Z,5
2018-01-03T18:53:10.898Z,5
2018-01-03T18:54:13.379Z,5
2018-01-03T18:55:15.881Z,5
2018-01-03T18:56:18.372Z,5
2018-01-03T18:57:20.867Z,5
2018-01-03T18:58:23.368Z,5.1
2018-01-03T18:59:25.864Z,5.1
2018-01-03T19:00:28.366Z,5.1
2018-01-03T19:01:30.896Z,5
2018-01-03T19:02:33.394Z,5.1
2018-01-03T19:03:35.903Z,5
2018-01-03T19:04:38.389Z,5
2018-01-03T19:05:40.885Z,5
2018-01-03T19:06:43.416Z,5
2018-01-03T19:07:45.918Z,5.1
2018-01-03T19:08:48.416Z,5.1
2018-01-03T19:09:50.925Z,5.1
2018-01-03T19:10:53.437Z,5
2018-01-03T19:11:56.248Z,5.1
2018-01-03T19:12:58.754Z,5
2018-01-03T19:14:01.254Z,5
2018-01-03T19:15:04.042Z,5
2018-01-03T19:16:06.580Z,5
2018-01-03T19:17:09.078Z,5
2018-01-03T19:18:11.566Z,5
2018-01-03T19:19:14.094Z,5
2018-01-03T19:20:16.598Z,5.1
2018-01-03T19:21:19.394Z,5.1
2018-01-03T19:22:21.903Z,5.1
2018-01-03T19:23:24.400Z,5
2018-01-03T19:24:27.199Z,5.1
2018-01-03T19:25:29.715Z,5.1
2018-01-03T19:26:32.218Z,5
2018-01-03T19:27:34.724Z,5
2018-01-03T19:28:37.239Z,5.1
2018-01-03T19:29:39.762Z,5.1
2018-01-03T19:30:42.272Z,5.1
2018-01-03T19:31:44.777Z,5.1
2018-01-03T19:32:47.264Z,5.1
2018-01-03T19:33:49.775Z,5.1
2018-01-03T19:34:52.285Z,5.1
2018-01-03T19:35:54.809Z,5.1
2018-01-03T19:36:57.307Z,5
2018-01-03T19:37:59.828Z,5.1
2018-01-03T19:39:02.330Z,5
2018-01-03T19:40:05.159Z,5
2018-01-03T19:41:07.666Z,5
2018-01-03T19:42:10.183Z,5
2018-01-03T19:43:12.699Z,5
2018-01-03T19:44:15.262Z,5
2018-01-03T19:45:18.057Z,5
2018-01-03T19:46:20.579Z,5
2018-01-03T19:47:23.101Z,5
2018-01-03T19:48:25.622Z,5
2018-01-03T19:49:28.131Z,5
2018-01-03T19:50:30.651Z,5
2018-01-03T19:51:33.464Z,5
2018-01-03T19:52:35.974Z,5
2018-01-03T19:53:38.488Z,5
2018-01-03T19:54:40.994Z,5
2018-01-03T19:55:43.786Z,5
2018-01-03T19:56:46.299Z,4.9
2018-01-03T19:57:49.103Z,4.9
2018-01-03T19:58:51.618Z,4.9
2018-01-03T19:59:54.120Z,4.9
2018-01-03T20:00:56.950Z,4.9
2018-01-03T20:01:59.460Z,4.9
2018-01-03T20:03:01.982Z,4.9
2018-01-03T20:04:04.482Z,4.9
2018-01-03T20:05:07.009Z,4.9
2018-01-03T20:06:10.086Z,4.9
2018-01-03T20:07:12.609Z,4.9
2018-01-03T20:08:15.097Z,4.8
2018-01-03T20:09:17.597Z,4.8
2018-01-03T20:10:20.119Z,4.8
2018-01-03T20:11:22.635Z,4.8
2018-01-03T20:12:25.803Z,4.8
2018-01-03T20:13:28.254Z,4.8
2018-01-03T20:14:30.760Z,4.8
2018-01-03T20:15:33.287Z,4.8
2018-01-03T20:16:35.797Z,4.8
2018-01-03T20:17:38.292Z,4.8
2018-01-03T20:18:40.798Z,4.8
2018-01-03T20:19:43.303Z,4.8
2018-01-03T20:20:46.125Z,4.7
2018-01-03T20:21:48.620Z,4.7
2018-01-03T20:22:51.122Z,4.7
2018-01-03T20:23:53.611Z,4.7
2018-01-03T20:24:56.122Z,4.7
2018-01-03T20:25:58.619Z,4.7
2018-01-03T20:27:01.104Z,4.7
2018-01-03T20:28:03.599Z,4.7
2018-01-03T20:29:06.088Z,4.7
2018-01-03T20:30:08.867Z,4.6
2018-01-03T20:31:11.357Z,4.6
2018-01-03T20:32:13.837Z,4.7
2018-01-03T20:33:16.337Z,4.6
2018-01-03T20:34:19.410Z,4.6
2018-01-03T20:35:21.904Z,4.6
2018-01-03T20:36:24.404Z,4.5
2018-01-03T20:37:26.902Z,4.5
2018-01-03T20:38:29.387Z,4.5
2018-01-03T20:39:31.903Z,4.5
2018-01-03T20:40:34.398Z,4.5
2018-01-03T20:41:36.886Z,4.5
2018-01-03T20:42:39.392Z,4.4
2018-01-03T20:43:41.883Z,4.5
2018-01-03T20:44:44.383Z,4.4
2018-01-03T20:45:47.475Z,4.4
2018-01-03T20:46:49.967Z,4.4
2018-01-03T20:47:52.468Z,4.4
2018-01-03T20:48:54.962Z,4.4
2018-01-03T20:49:57.463Z,4.4
2018-01-03T20:50:59.943Z,4.4
2018-01-03T20:52:02.446Z,4.3
2018-01-03T20:53:04.941Z,4.3
2018-01-03T20:54:07.717Z,4.3
2018-01-03T20:55:10.214Z,4.3
2018-01-03T20:56:12.700Z,4.3
2018-01-03T20:57:15.185Z,4.2
2018-01-03T20:58:17.709Z,4.2
2018-01-03T20:59:20.196Z,4.2
2018-01-03T21:00:22.680Z,4.1
2018-01-03T21:01:25.180Z,4.1
2018-01-03T21:02:27.687Z,4
2018-01-03T21:03:30.179Z,4
2018-01-03T21:04:32.680Z,4
2018-01-03T21:05:35.160Z,3.9
2018-01-03T21:06:37.656Z,3.9
2018-01-03T21:07:40.149Z,3.9
2018-01-03T21:08:42.639Z,3.8
2018-01-03T21:09:45.129Z,3.8
2018-01-03T21:10:47.616Z,3.8
2018-01-03T21:11:50.112Z,3.7
2018-01-03T21:12:52.615Z,3.7
2018-01-03T21:13:55.108Z,3.7
2018-01-03T21:14:58.169Z,3.7
2018-01-03T21:16:00.655Z,3.6
2018-01-03T21:17:03.443Z,3.6
2018-01-03T21:18:05.941Z,3.6
2018-01-03T21:19:08.427Z,3.6
2018-01-03T21:20:10.931Z,3.6
2018-01-03T21:21:13.433Z,3.6
2018-01-03T21:22:16.209Z,3.6
2018-01-03T21:23:19.007Z,3.6
2018-01-03T21:24:21.504Z,3.6
2018-01-03T21:25:24.002Z,3.6
2018-01-03T21:26:26.519Z,3.6
2018-01-03T21:27:29.307Z,3.6
2018-01-03T21:28:31.806Z,3.6
2018-01-03T21:29:34.597Z,3.6
2018-01-03T21:30:37.079Z,3.6
2018-01-03T21:31:39.573Z,3.6
2018-01-03T21:32:42.062Z,3.7
2018-01-03T21:33:44.560Z,3.7
2018-01-03T21:34:47.053Z,3.7
2018-01-03T21:35:49.835Z,3.7
2018-01-03T21:36:52.310Z,3.7
2018-01-03T21:37:54.811Z,3.7
2018-01-03T21:38:57.313Z,3.7
2018-01-03T21:39:59.801Z,3.8
2018-01-03T21:41:02.300Z,3.8
2018-01-03T21:42:04.795Z,3.8
2018-01-03T21:43:07.281Z,3.8
2018-01-03T21:44:09.778Z,3.8
2018-01-03T21:45:12.263Z,3.8
2018-01-03T21:46:15.278Z,3.8
2018-01-03T21:47:17.773Z,3.8
2018-01-03T21:48:20.276Z,3.8
2018-01-03T21:49:22.770Z,3.9
2018-01-03T21:50:25.258Z,3.9
2018-01-03T21:51:27.757Z,3.8
2018-01-03T21:52:30.544Z,3.8
2018-01-03T21:53:33.037Z,3.8
2018-01-03T21:54:35.540Z,3.9
2018-01-03T21:55:38.017Z,3.9
2018-01-03T21:56:40.513Z,3.9
2018-01-03T21:57:43.017Z,3.9
2018-01-03T21:58:45.504Z,3.8
2018-01-03T21:59:48.000Z,3.8
2018-01-03T22:00:50.479Z,3.8
2018-01-03T22:01:53.254Z,3.8
2018-01-03T22:02:56.056Z,3.8
2018-01-03T22:03:58.836Z,3.8
2018-01-03T22:05:01.327Z,3.8
2018-01-03T22:06:04.118Z,3.8
2018-01-03T22:07:06.606Z,3.8
2018-01-03T22:08:09.105Z,3.8
2018-01-03T22:09:11.894Z,3.9
2018-01-03T22:10:14.376Z,3.9
2018-01-03T22:11:16.868Z,3.9
2018-01-03T22:12:19.365Z,3.9
2018-01-03T22:13:22.142Z,3.9
2018-01-03T22:14:24.919Z,4
2018-01-03T22:15:27.412Z,4
2018-01-03T22:16:29.907Z,4
2018-01-03T22:17:32.404Z,4
2018-01-03T22:18:35.190Z,4
2018-01-03T22:19:37.965Z,4
2018-01-03T22:20:40.459Z,4
2018-01-03T22:21:42.939Z,4
2018-01-03T22:22:45.441Z,4.1
2018-01-03T22:23:47.930Z,4.1
2018-01-03T22:24:50.419Z,4.1
2018-01-03T22:25:52.913Z,4.2
2018-01-03T22:26:55.431Z,4.2
2018-01-03T22:27:58.213Z,4.3
2018-01-03T22:29:00.730Z,4.3
2018-01-03T22:30:03.211Z,4.3
2018-01-03T22:31:05.707Z,4.4
2018-01-03T22:32:08.492Z,4.4
2018-01-03T22:33:10.988Z,4.5
2018-01-03T22:34:13.770Z,4.5
2018-01-03T22:35:16.580Z,4.6
2018-01-03T22:36:19.341Z,4.7
2018-01-03T22:37:21.852Z,4.8
2018-01-03T22:38:24.342Z,4.8
2018-01-03T22:39:26.836Z,4.9
2018-01-03T22:40:29.331Z,4.9
2018-01-03T22:41:31.817Z,5
2018-01-03T22:42:34.300Z,5.1
2018-01-03T22:43:36.806Z,5.1
2018-01-03T22:44:39.287Z,5.1
2018-01-03T22:45:42.107Z,5.2
2018-01-03T22:46:44.593Z,5.2
2018-01-03T22:47:47.087Z,5.3
2018-01-03T22:48:49.577Z,5.3
2018-01-03T22:49:52.074Z,5.4
2018-01-03T22:50:54.883Z,5.4
2018-01-03T22:51:57.344Z,5.4
2018-01-03T22:52:59.821Z,5.4
2018-01-03T22:54:02.347Z,5.4
2018-01-03T22:55:04.886Z,5.4
2018-01-03T22:56:07.382Z,5.4
2018-01-03T22:57:09.869Z,5.5
2018-01-03T22:58:12.369Z,5.5
2018-01-03T22:59:14.860Z,5.5
2018-01-03T23:00:17.349Z,5.5
2018-01-03T23:01:19.840Z,5.5
2018-01-03T23:02:22.335Z,5.5
2018-01-03T23:03:24.829Z,5.5
2018-01-03T23:04:27.336Z,5.6
2018-01-03T23:05:30.126Z,5.6
2018-01-03T23:06:32.615Z,5.6
2018-01-03T23:07:35.116Z,5.6
2018-01-03T23:08:37.893Z,5.6
2018-01-03T23:09:41.662Z,5.6
2018-01-03T23:10:44.170Z,5.6
2018-01-03T23:11:46.649Z,5.6
2018-01-03T23:12:49.153Z,5.6
2018-01-03T23:13:52.047Z,5.6
2018-01-03T23:14:54.548Z,5.7
2018-01-03T23:15:57.355Z,5.6
2018-01-03T23:16:59.873Z,5.7
2018-01-03T23:18:02.375Z,5.7
2018-01-03T23:19:04.852Z,5.7
2018-01-03T23:20:07.347Z,5.7
2018-01-03T23:21:09.845Z,5.7
2018-01-03T23:22:12.341Z,5.7
2018-01-03T23:23:14.837Z,5.7
2018-01-03T23:24:17.315Z,5.7
2018-01-03T23:25:19.809Z,5.7
2018-01-03T23:26:22.605Z,5.7
2018-01-03T23:27:25.099Z,5.7
2018-01-03T23:28:27.585Z,5.7
2018-01-03T23:29:30.085Z,5.7
2018-01-03T23:30:32.579Z,5.6
2018-01-03T23:31:35.077Z,5.7
2018-01-03T23:32:37.574Z,5.7
2018-01-03T23:33:40.063Z,5.7
2018-01-03T23:34:42.549Z,5.7
2018-01-03T23:35:45.056Z,5.7
2018-01-03T23:36:47.544Z,5.6
2018-01-03T23:37:50.034Z,5.6
2018-01-03T23:38:52.531Z,5.6
2018-01-03T23:39:55.024Z,5.6
2018-01-03T23:40:57.511Z,5.7
2018-01-03T23:42:00.012Z,5.7
2018-01-03T23:43:02.492Z,5.7
2018-01-03T23:44:04.995Z,5.6
2018-01-03T23:45:07.493Z,5.7
2018-01-03T23:46:09.981Z,5.7
2018-01-03T23:47:12.474Z,5.7
2018-01-03T23:48:14.967Z,5.7
2018-01-03T23:49:17.456Z,5.7
2018-01-03T23:50:19.947Z,5.7
2018-01-03T23:51:22.454Z,5.7
2018-01-03T23:52:24.938Z,5.7
2018-01-03T23:53:27.722Z,5.7
2018-01-03T23:54:30.508Z,5.7
2018-01-03T23:55:33.000Z,5.7
2018-01-03T23:56:35.490Z,5.7
2018-01-03T23:57:37.986Z,5.7
2018-01-03T23:58:40.762Z,5.7
2018-01-03T23:59:43.267Z,5.7
